sensor_id;sensor_type;location;lat;lon;timestamp;temperature;humidity
19389;DHT22;9830;41.876;23.474;2022-10-29T00:00:25;1.70;99.90
19389;DHT22;9830;41.876;23.474;2022-10-29T00:02:50;1.60;99.90
19389;DHT22;9830;41.876;23.474;2022-10-29T00:05:16;1.50;99.90
19389;DHT22;9830;41.876;23.474;2022-10-29T00:07:42;1.50;99.90
19389;DHT22;9830;41.876;23.474;2022-10-29T00:10:08;1.50;99.90
19389;DHT22;9830;41.876;23.474;2022-10-29T00:12:34;1.50;99.90
19389;DHT22;9830;41.876;23.474;2022-10-29T00:15:01;1.50;99.90
19389;DHT22;9830;41.876;23.474;2022-10-29T00:17:26;1.50;99.90
19389;DHT22;9830;41.876;23.474;2022-10-29T00:19:52;1.40;99.90
19389;DHT22;9830;41.876;23.474;2022-10-29T00:22:18;1.40;99.90
19389;DHT22;9830;41.876;23.474;2022-10-29T00:24:43;1.30;99.90
19389;DHT22;9830;41.876;23.474;2022-10-29T00:27:09;1.30;99.90
19389;DHT22;9830;41.876;23.474;2022-10-29T00:29:35;1.20;99.90
19389;DHT22;9830;41.876;23.474;2022-10-29T00:32:00;1.10;99.90
19389;DHT22;9830;41.876;23.474;2022-10-29T00:34:26;1.10;99.90
19389;DHT22;9830;41.876;23.474;2022-10-29T00:36:52;1.00;99.90
19389;DHT22;9830;41.876;23.474;2022-10-29T00:39:17;1.00;99.90
19389;DHT22;9830;41.876;23.474;2022-10-29T00:41:43;1.10;99.90
19389;DHT22;9830;41.876;23.474;2022-10-29T00:46:59;1.10;99.90
19389;DHT22;9830;41.876;23.474;2022-10-29T00:49:28;1.20;99.90
19389;DHT22;9830;41.876;23.474;2022-10-29T00:51:54;1.20;99.90
19389;DHT22;9830;41.876;23.474;2022-10-29T00:54:20;1.10;99.90
19389;DHT22;9830;41.876;23.474;2022-10-29T00:56:52;1.10;99.90
19389;DHT22;9830;41.876;23.474;2022-10-29T00:59:19;1.10;99.90
19389;DHT22;9830;41.876;23.474;2022-10-29T01:01:46;1.00;99.90
19389;DHT22;9830;41.876;23.474;2022-10-29T01:04:12;1.10;99.90
19389;DHT22;9830;41.876;23.474;2022-10-29T01:06:40;1.00;99.90
19389;DHT22;9830;41.876;23.474;2022-10-29T01:09:06;1.00;99.90
19389;DHT22;9830;41.876;23.474;2022-10-29T01:14:34;0.90;99.90
19389;DHT22;9830;41.876;23.474;2022-10-29T01:26:04;0.80;99.90
19389;DHT22;9830;41.876;23.474;2022-10-29T01:31:47;0.70;99.90
19389;DHT22;9830;41.876;23.474;2022-10-29T01:34:29;0.70;99.90
19389;DHT22;9830;41.876;23.474;2022-10-29T01:42:47;0.50;99.90
19389;DHT22;9830;41.876;23.474;2022-10-29T01:45:26;0.60;99.90
19389;DHT22;9830;41.876;23.474;2022-10-29T01:48:04;0.60;99.90
19389;DHT22;9830;41.876;23.474;2022-10-29T01:50:31;0.60;99.90
19389;DHT22;9830;41.876;23.474;2022-10-29T01:52:59;0.70;99.90
19389;DHT22;9830;41.876;23.474;2022-10-29T01:55:30;0.70;99.90
19389;DHT22;9830;41.876;23.474;2022-10-29T01:57:57;0.80;99.90
19389;DHT22;9830;41.876;23.474;2022-10-29T02:00:23;0.80;99.90
19389;DHT22;9830;41.876;23.474;2022-10-29T02:05:59;0.60;99.90
19389;DHT22;9830;41.876;23.474;2022-10-29T02:13:57;0.30;99.90
19389;DHT22;9830;41.876;23.474;2022-10-29T02:16:27;0.30;99.90
19389;DHT22;9830;41.876;23.474;2022-10-29T02:18:53;0.40;99.90
19389;DHT22;9830;41.876;23.474;2022-10-29T02:21:19;0.30;99.90
19389;DHT22;9830;41.876;23.474;2022-10-29T02:23:45;0.30;99.90
19389;DHT22;9830;41.876;23.474;2022-10-29T02:26:12;0.30;99.90
19389;DHT22;9830;41.876;23.474;2022-10-29T02:28:37;0.30;99.90
19389;DHT22;9830;41.876;23.474;2022-10-29T02:31:04;0.30;99.90
19389;DHT22;9830;41.876;23.474;2022-10-29T02:33:29;0.40;99.90
19389;DHT22;9830;41.876;23.474;2022-10-29T02:35:55;0.40;99.90
19389;DHT22;9830;41.876;23.474;2022-10-29T02:38:21;0.40;99.90
19389;DHT22;9830;41.876;23.474;2022-10-29T02:40:46;0.40;99.90
19389;DHT22;9830;41.876;23.474;2022-10-29T02:43:12;0.40;99.90
19389;DHT22;9830;41.876;23.474;2022-10-29T02:45:38;0.40;99.90
19389;DHT22;9830;41.876;23.474;2022-10-29T02:48:04;0.30;99.90
19389;DHT22;9830;41.876;23.474;2022-10-29T02:50:30;0.20;99.90
19389;DHT22;9830;41.876;23.474;2022-10-29T02:52:55;0.20;99.90
19389;DHT22;9830;41.876;23.474;2022-10-29T02:55:21;0.10;99.90
19389;DHT22;9830;41.876;23.474;2022-10-29T02:57:47;0.10;99.90
19389;DHT22;9830;41.876;23.474;2022-10-29T03:00:13;0.10;99.90
19389;DHT22;9830;41.876;23.474;2022-10-29T03:02:39;0.00;99.90
19389;DHT22;9830;41.876;23.474;2022-10-29T03:05:05;0.00;99.90
19389;DHT22;9830;41.876;23.474;2022-10-29T03:07:35;0.00;99.90
19389;DHT22;9830;41.876;23.474;2022-10-29T03:10:05;-0.10;99.90
19389;DHT22;9830;41.876;23.474;2022-10-29T03:12:31;0.00;99.90
19389;DHT22;9830;41.876;23.474;2022-10-29T03:14:57;0.00;99.90
19389;DHT22;9830;41.876;23.474;2022-10-29T03:17:23;0.00;99.90
19389;DHT22;9830;41.876;23.474;2022-10-29T03:19:48;0.00;99.90
19389;DHT22;9830;41.876;23.474;2022-10-29T03:22:14;-0.20;99.90
19389;DHT22;9830;41.876;23.474;2022-10-29T03:24:40;-0.30;99.90
19389;DHT22;9830;41.876;23.474;2022-10-29T03:27:05;-0.40;99.90
19389;DHT22;9830;41.876;23.474;2022-10-29T03:29:31;-0.40;99.90
19389;DHT22;9830;41.876;23.474;2022-10-29T03:31:57;-0.40;99.90
19389;DHT22;9830;41.876;23.474;2022-10-29T03:34:23;-0.40;99.90
19389;DHT22;9830;41.876;23.474;2022-10-29T03:36:48;-0.30;99.90
19389;DHT22;9830;41.876;23.474;2022-10-29T03:39:14;-0.30;99.90
19389;DHT22;9830;41.876;23.474;2022-10-29T03:41:40;-0.30;99.90
19389;DHT22;9830;41.876;23.474;2022-10-29T03:44:06;-0.40;99.90
19389;DHT22;9830;41.876;23.474;2022-10-29T03:46:31;-0.40;99.90
19389;DHT22;9830;41.876;23.474;2022-10-29T03:48:58;-0.30;99.90
19389;DHT22;9830;41.876;23.474;2022-10-29T03:51:24;-0.40;99.90
19389;DHT22;9830;41.876;23.474;2022-10-29T03:53:49;-0.40;99.90
19389;DHT22;9830;41.876;23.474;2022-10-29T03:56:15;-0.50;99.90
19389;DHT22;9830;41.876;23.474;2022-10-29T03:58:41;-0.40;99.90
19389;DHT22;9830;41.876;23.474;2022-10-29T04:01:08;-0.40;99.90
19389;DHT22;9830;41.876;23.474;2022-10-29T04:03:35;-0.30;99.90
19389;DHT22;9830;41.876;23.474;2022-10-29T04:06:08;-0.30;99.90
19389;DHT22;9830;41.876;23.474;2022-10-29T04:08:34;-0.40;99.90
19389;DHT22;9830;41.876;23.474;2022-10-29T04:11:00;-0.40;99.90
19389;DHT22;9830;41.876;23.474;2022-10-29T04:13:26;-0.50;99.90
19389;DHT22;9830;41.876;23.474;2022-10-29T04:15:55;-0.60;99.90
19389;DHT22;9830;41.876;23.474;2022-10-29T04:18:22;-0.60;99.90
19389;DHT22;9830;41.876;23.474;2022-10-29T04:20:47;-0.60;99.90
19389;DHT22;9830;41.876;23.474;2022-10-29T04:23:13;-0.60;99.90
19389;DHT22;9830;41.876;23.474;2022-10-29T04:25:39;-0.70;99.90
19389;DHT22;9830;41.876;23.474;2022-10-29T04:28:04;-0.80;99.90
19389;DHT22;9830;41.876;23.474;2022-10-29T04:30:30;-0.70;99.90
19389;DHT22;9830;41.876;23.474;2022-10-29T04:32:57;-0.70;99.90
19389;DHT22;9830;41.876;23.474;2022-10-29T04:35:24;-0.60;99.90
19389;DHT22;9830;41.876;23.474;2022-10-29T04:37:50;-0.80;99.90
19389;DHT22;9830;41.876;23.474;2022-10-29T04:40:16;-0.70;99.90
19389;DHT22;9830;41.876;23.474;2022-10-29T04:42:41;-0.70;99.90
19389;DHT22;9830;41.876;23.474;2022-10-29T04:45:07;-0.70;99.90
19389;DHT22;9830;41.876;23.474;2022-10-29T04:47:33;-0.70;99.90
19389;DHT22;9830;41.876;23.474;2022-10-29T04:49:59;-0.70;99.90
19389;DHT22;9830;41.876;23.474;2022-10-29T04:52:25;-0.70;99.90
19389;DHT22;9830;41.876;23.474;2022-10-29T04:54:51;-0.70;99.90
19389;DHT22;9830;41.876;23.474;2022-10-29T04:57:16;-0.80;99.90
19389;DHT22;9830;41.876;23.474;2022-10-29T04:59:42;-0.80;99.90
19389;DHT22;9830;41.876;23.474;2022-10-29T05:02:09;-0.80;99.90
19389;DHT22;9830;41.876;23.474;2022-10-29T05:04:35;-0.80;99.90
19389;DHT22;9830;41.876;23.474;2022-10-29T05:07:00;-0.70;99.90
19389;DHT22;9830;41.876;23.474;2022-10-29T05:09:26;-0.60;99.90
19389;DHT22;9830;41.876;23.474;2022-10-29T05:11:52;-0.40;99.90
19389;DHT22;9830;41.876;23.474;2022-10-29T05:14:17;0.30;99.90
19389;DHT22;9830;41.876;23.474;2022-10-29T05:16:43;0.70;99.90
19389;DHT22;9830;41.876;23.474;2022-10-29T05:19:09;1.20;99.90
19389;DHT22;9830;41.876;23.474;2022-10-29T05:21:34;1.80;99.90
19389;DHT22;9830;41.876;23.474;2022-10-29T05:24:00;2.70;99.90
19389;DHT22;9830;41.876;23.474;2022-10-29T05:26:26;4.30;94.60
19389;DHT22;9830;41.876;23.474;2022-10-29T05:28:54;4.80;92.10
19389;DHT22;9830;41.876;23.474;2022-10-29T05:31:19;4.40;91.10
19389;DHT22;9830;41.876;23.474;2022-10-29T05:33:45;3.90;93.40
19389;DHT22;9830;41.876;23.474;2022-10-29T05:36:11;4.30;94.00
19389;DHT22;9830;41.876;23.474;2022-10-29T05:38:36;4.80;91.70
19389;DHT22;9830;41.876;23.474;2022-10-29T05:41:02;6.10;87.80
19389;DHT22;9830;41.876;23.474;2022-10-29T05:43:28;6.10;85.30
19389;DHT22;9830;41.876;23.474;2022-10-29T05:45:54;6.20;87.50
19389;DHT22;9830;41.876;23.474;2022-10-29T05:48:19;6.30;84.70
19389;DHT22;9830;41.876;23.474;2022-10-29T05:50:45;6.40;84.60
19389;DHT22;9830;41.876;23.474;2022-10-29T05:53:12;7.50;80.00
19389;DHT22;9830;41.876;23.474;2022-10-29T05:55:38;7.00;80.10
19389;DHT22;9830;41.876;23.474;2022-10-29T05:58:07;6.90;81.00
19389;DHT22;9830;41.876;23.474;2022-10-29T06:00:36;7.50;78.00
19389;DHT22;9830;41.876;23.474;2022-10-29T06:03:02;8.00;76.40
19389;DHT22;9830;41.876;23.474;2022-10-29T06:05:28;8.60;69.10
19389;DHT22;9830;41.876;23.474;2022-10-29T06:07:58;8.20;72.40
19389;DHT22;9830;41.876;23.474;2022-10-29T06:10:25;8.40;73.30
19389;DHT22;9830;41.876;23.474;2022-10-29T06:12:51;8.40;71.00
19389;DHT22;9830;41.876;23.474;2022-10-29T06:15:18;9.10;72.80
19389;DHT22;9830;41.876;23.474;2022-10-29T06:17:44;10.60;65.40
19389;DHT22;9830;41.876;23.474;2022-10-29T06:20:12;11.80;57.70
19389;DHT22;9830;41.876;23.474;2022-10-29T06:22:38;12.00;55.80
19389;DHT22;9830;41.876;23.474;2022-10-29T06:25:04;13.20;55.00
19389;DHT22;9830;41.876;23.474;2022-10-29T06:27:30;12.40;53.40
19389;DHT22;9830;41.876;23.474;2022-10-29T06:29:56;13.00;53.50
19389;DHT22;9830;41.876;23.474;2022-10-29T06:32:21;13.30;52.40
19389;DHT22;9830;41.876;23.474;2022-10-29T06:34:47;12.80;52.60
19389;DHT22;9830;41.876;23.474;2022-10-29T06:37:13;12.70;53.50
19389;DHT22;9830;41.876;23.474;2022-10-29T06:39:39;13.70;51.80
19389;DHT22;9830;41.876;23.474;2022-10-29T06:42:04;12.80;53.80
19389;DHT22;9830;41.876;23.474;2022-10-29T06:44:30;12.30;55.30
19389;DHT22;9830;41.876;23.474;2022-10-29T06:46:56;13.60;53.20
19389;DHT22;9830;41.876;23.474;2022-10-29T06:49:22;14.80;51.00
19389;DHT22;9830;41.876;23.474;2022-10-29T06:51:47;16.50;46.60
19389;DHT22;9830;41.876;23.474;2022-10-29T06:54:13;17.20;44.60
19389;DHT22;9830;41.876;23.474;2022-10-29T06:56:39;17.00;44.40
19389;DHT22;9830;41.876;23.474;2022-10-29T06:59:04;16.80;44.80
19389;DHT22;9830;41.876;23.474;2022-10-29T07:01:30;17.10;44.20
19389;DHT22;9830;41.876;23.474;2022-10-29T07:03:58;17.40;43.60
19389;DHT22;9830;41.876;23.474;2022-10-29T07:06:24;17.00;45.00
19389;DHT22;9830;41.876;23.474;2022-10-29T07:08:50;16.30;45.80
19389;DHT22;9830;41.876;23.474;2022-10-29T07:11:16;16.70;45.60
19389;DHT22;9830;41.876;23.474;2022-10-29T07:13:42;16.30;45.90
19389;DHT22;9830;41.876;23.474;2022-10-29T07:16:08;15.70;47.50
19389;DHT22;9830;41.876;23.474;2022-10-29T07:18:33;16.60;46.20
19389;DHT22;9830;41.876;23.474;2022-10-29T07:21:01;17.10;45.10
19389;DHT22;9830;41.876;23.474;2022-10-29T07:23:28;18.00;44.00
19389;DHT22;9830;41.876;23.474;2022-10-29T07:25:54;18.60;42.80
19389;DHT22;9830;41.876;23.474;2022-10-29T07:28:21;16.60;45.50
19389;DHT22;9830;41.876;23.474;2022-10-29T07:30:48;17.90;44.50
19389;DHT22;9830;41.876;23.474;2022-10-29T07:33:15;18.20;44.10
19389;DHT22;9830;41.876;23.474;2022-10-29T07:35:41;18.60;42.90
19389;DHT22;9830;41.876;23.474;2022-10-29T07:38:08;18.00;43.20
19389;DHT22;9830;41.876;23.474;2022-10-29T07:40:34;19.40;41.20
19389;DHT22;9830;41.876;23.474;2022-10-29T07:43:00;19.10;41.00
19389;DHT22;9830;41.876;23.474;2022-10-29T07:45:26;19.80;40.50
19389;DHT22;9830;41.876;23.474;2022-10-29T07:48:00;18.90;41.10
19389;DHT22;9830;41.876;23.474;2022-10-29T07:50:27;19.10;40.70
19389;DHT22;9830;41.876;23.474;2022-10-29T07:52:53;18.10;44.10
19389;DHT22;9830;41.876;23.474;2022-10-29T07:55:19;19.10;42.20
19389;DHT22;9830;41.876;23.474;2022-10-29T07:57:45;18.10;43.30
19389;DHT22;9830;41.876;23.474;2022-10-29T08:00:11;20.00;41.00
19389;DHT22;9830;41.876;23.474;2022-10-29T08:02:38;20.50;40.20
19389;DHT22;9830;41.876;23.474;2022-10-29T08:05:04;21.20;38.50
19389;DHT22;9830;41.876;23.474;2022-10-29T08:07:30;21.40;37.80
19389;DHT22;9830;41.876;23.474;2022-10-29T08:09:55;21.80;36.70
19389;DHT22;9830;41.876;23.474;2022-10-29T08:12:21;21.30;38.50
19389;DHT22;9830;41.876;23.474;2022-10-29T08:14:47;22.10;36.80
19389;DHT22;9830;41.876;23.474;2022-10-29T08:17:12;22.10;36.40
19389;DHT22;9830;41.876;23.474;2022-10-29T08:19:38;20.80;38.40
19389;DHT22;9830;41.876;23.474;2022-10-29T08:22:04;20.80;39.70
19389;DHT22;9830;41.876;23.474;2022-10-29T08:24:29;22.30;36.50
19389;DHT22;9830;41.876;23.474;2022-10-29T08:26:55;21.70;36.70
19389;DHT22;9830;41.876;23.474;2022-10-29T08:29:21;21.70;37.60
19389;DHT22;9830;41.876;23.474;2022-10-29T08:31:46;22.30;36.50
19389;DHT22;9830;41.876;23.474;2022-10-29T08:34:12;21.60;37.50
19389;DHT22;9830;41.876;23.474;2022-10-29T08:36:38;21.50;37.80
19389;DHT22;9830;41.876;23.474;2022-10-29T08:39:05;21.40;37.90
19389;DHT22;9830;41.876;23.474;2022-10-29T08:47:12;21.90;36.00
19389;DHT22;9830;41.876;23.474;2022-10-29T08:49:43;21.00;37.70
19389;DHT22;9830;41.876;23.474;2022-10-29T08:52:23;22.80;34.80
19389;DHT22;9830;41.876;23.474;2022-10-29T08:55:11;22.40;35.10
19389;DHT22;9830;41.876;23.474;2022-10-29T08:57:43;22.80;36.20
19389;DHT22;9830;41.876;23.474;2022-10-29T09:00:14;22.90;34.40
19389;DHT22;9830;41.876;23.474;2022-10-29T09:02:40;23.20;35.20
19389;DHT22;9830;41.876;23.474;2022-10-29T09:05:12;22.30;35.30
19389;DHT22;9830;41.876;23.474;2022-10-29T09:08:01;23.80;35.50
19389;DHT22;9830;41.876;23.474;2022-10-29T09:10:44;24.90;33.30
19389;DHT22;9830;41.876;23.474;2022-10-29T09:26:59;23.90;33.80
19389;DHT22;9830;41.876;23.474;2022-10-29T09:37:39;24.50;32.50
19389;DHT22;9830;41.876;23.474;2022-10-29T09:40:14;25.10;32.30
19389;DHT22;9830;41.876;23.474;2022-10-29T09:42:43;25.90;31.00
19389;DHT22;9830;41.876;23.474;2022-10-29T09:45:16;26.00;30.00
19389;DHT22;9830;41.876;23.474;2022-10-29T09:47:57;25.70;30.50
19389;DHT22;9830;41.876;23.474;2022-10-29T09:53:00;25.40;30.50
19389;DHT22;9830;41.876;23.474;2022-10-29T09:55:42;25.40;29.90
19389;DHT22;9830;41.876;23.474;2022-10-29T09:58:18;25.70;30.00
19389;DHT22;9830;41.876;23.474;2022-10-29T10:00:44;25.80;28.90
19389;DHT22;9830;41.876;23.474;2022-10-29T10:03:19;25.60;28.70
19389;DHT22;9830;41.876;23.474;2022-10-29T10:08:29;26.20;28.60
19389;DHT22;9830;41.876;23.474;2022-10-29T10:11:03;26.70;27.60
19389;DHT22;9830;41.876;23.474;2022-10-29T10:13:48;26.00;27.30
19389;DHT22;9830;41.876;23.474;2022-10-29T10:16:31;26.40;27.40
19389;DHT22;9830;41.876;23.474;2022-10-29T10:18:57;27.10;27.00
19389;DHT22;9830;41.876;23.474;2022-10-29T10:21:31;27.00;26.50
19389;DHT22;9830;41.876;23.474;2022-10-29T10:23:58;26.50;26.40
19389;DHT22;9830;41.876;23.474;2022-10-29T10:29:18;27.70;26.20
19389;DHT22;9830;41.876;23.474;2022-10-29T10:34:23;27.70;26.30
19389;DHT22;9830;41.876;23.474;2022-10-29T10:36:52;27.30;26.90
19389;DHT22;9830;41.876;23.474;2022-10-29T10:39:34;26.30;27.20
19389;DHT22;9830;41.876;23.474;2022-10-29T10:42:27;25.80;27.70
19389;DHT22;9830;41.876;23.474;2022-10-29T10:45:01;25.40;28.00
19389;DHT22;9830;41.876;23.474;2022-10-29T10:47:31;24.20;29.20
19389;DHT22;9830;41.876;23.474;2022-10-29T10:50:21;23.60;30.00
19389;DHT22;9830;41.876;23.474;2022-10-29T10:52:48;23.30;31.20
19389;DHT22;9830;41.876;23.474;2022-10-29T10:55:23;23.20;31.20
19389;DHT22;9830;41.876;23.474;2022-10-29T11:01:01;22.70;31.00
19389;DHT22;9830;41.876;23.474;2022-10-29T11:06:28;22.00;30.40
19389;DHT22;9830;41.876;23.474;2022-10-29T11:12:01;21.80;30.60
19389;DHT22;9830;41.876;23.474;2022-10-29T11:14:34;22.10;29.30
19389;DHT22;9830;41.876;23.474;2022-10-29T11:17:03;22.20;29.70
19389;DHT22;9830;41.876;23.474;2022-10-29T11:19:41;22.10;29.90
19389;DHT22;9830;41.876;23.474;2022-10-29T11:27:50;22.00;30.00
19389;DHT22;9830;41.876;23.474;2022-10-29T11:30:19;22.00;30.30
19389;DHT22;9830;41.876;23.474;2022-10-29T11:35:45;21.90;31.00
19389;DHT22;9830;41.876;23.474;2022-10-29T11:41:12;21.80;30.00
19389;DHT22;9830;41.876;23.474;2022-10-29T11:43:39;21.40;30.30
19389;DHT22;9830;41.876;23.474;2022-10-29T11:46:13;21.50;30.60
19389;DHT22;9830;41.876;23.474;2022-10-29T11:51:53;21.90;31.30
19389;DHT22;9830;41.876;23.474;2022-10-29T11:57:35;22.40;30.00
19389;DHT22;9830;41.876;23.474;2022-10-29T12:00:09;22.20;29.70
19389;DHT22;9830;41.876;23.474;2022-10-29T12:05:44;22.00;30.30
19389;DHT22;9830;41.876;23.474;2022-10-29T12:08:28;22.20;30.50
19389;DHT22;9830;41.876;23.474;2022-10-29T12:22:22;22.30;30.10
19389;DHT22;9830;41.876;23.474;2022-10-29T12:25:20;22.00;30.30
19389;DHT22;9830;41.876;23.474;2022-10-29T12:28:01;21.90;31.40
19389;DHT22;9830;41.876;23.474;2022-10-29T12:30:33;22.00;30.20
19389;DHT22;9830;41.876;23.474;2022-10-29T12:33:08;21.80;30.50
19389;DHT22;9830;41.876;23.474;2022-10-29T12:36:04;22.00;31.00
19389;DHT22;9830;41.876;23.474;2022-10-29T12:41:05;22.00;29.70
19389;DHT22;9830;41.876;23.474;2022-10-29T12:43:34;22.10;29.80
19389;DHT22;9830;41.876;23.474;2022-10-29T12:56:46;21.80;31.50
19389;DHT22;9830;41.876;23.474;2022-10-29T13:01:53;21.80;31.00
19389;DHT22;9830;41.876;23.474;2022-10-29T13:04:32;21.80;31.00
19389;DHT22;9830;41.876;23.474;2022-10-29T13:09:33;21.80;31.40
19389;DHT22;9830;41.876;23.474;2022-10-29T13:15:11;21.60;30.80
19389;DHT22;9830;41.876;23.474;2022-10-29T13:17:40;21.60;31.30
19389;DHT22;9830;41.876;23.474;2022-10-29T13:20:19;21.60;31.90
19389;DHT22;9830;41.876;23.474;2022-10-29T13:27:53;21.10;31.60
19389;DHT22;9830;41.876;23.474;2022-10-29T13:30:24;20.90;31.90
19389;DHT22;9830;41.876;23.474;2022-10-29T13:32:51;20.90;32.20
19389;DHT22;9830;41.876;23.474;2022-10-29T13:43:02;20.50;37.70
19389;DHT22;9830;41.876;23.474;2022-10-29T13:45:29;20.30;37.70
19389;DHT22;9830;41.876;23.474;2022-10-29T13:48:44;20.20;38.80
19389;DHT22;9830;41.876;23.474;2022-10-29T13:50:48;19.90;38.70
19389;DHT22;9830;41.876;23.474;2022-10-29T13:53:21;19.80;39.90
19389;DHT22;9830;41.876;23.474;2022-10-29T13:55:48;19.70;41.10
19389;DHT22;9830;41.876;23.474;2022-10-29T13:58:35;19.60;41.40
19389;DHT22;9830;41.876;23.474;2022-10-29T14:01:07;19.40;41.00
19389;DHT22;9830;41.876;23.474;2022-10-29T14:06:14;19.30;42.20
19389;DHT22;9830;41.876;23.474;2022-10-29T14:11:39;19.00;42.90
19389;DHT22;9830;41.876;23.474;2022-10-29T14:14:30;18.80;43.20
19389;DHT22;9830;41.876;23.474;2022-10-29T14:17:15;18.50;43.60
19389;DHT22;9830;41.876;23.474;2022-10-29T14:19:46;18.30;44.10
19389;DHT22;9830;41.876;23.474;2022-10-29T14:24:43;18.20;44.60
19389;DHT22;9830;41.876;23.474;2022-10-29T14:27:12;18.00;45.20
19389;DHT22;9830;41.876;23.474;2022-10-29T14:29:39;17.90;45.70
19389;DHT22;9830;41.876;23.474;2022-10-29T14:32:16;17.70;45.40
19389;DHT22;9830;41.876;23.474;2022-10-29T14:34:47;17.50;45.60
19389;DHT22;9830;41.876;23.474;2022-10-29T14:37:34;17.20;45.70
19389;DHT22;9830;41.876;23.474;2022-10-29T14:40:05;17.00;46.10
19389;DHT22;9830;41.876;23.474;2022-10-29T14:42:43;16.60;46.60
19389;DHT22;9830;41.876;23.474;2022-10-29T14:45:19;16.30;47.50
19389;DHT22;9830;41.876;23.474;2022-10-29T14:47:56;16.00;48.20
19389;DHT22;9830;41.876;23.474;2022-10-29T14:50:25;15.70;48.80
19389;DHT22;9830;41.876;23.474;2022-10-29T14:52:57;15.40;49.80
19389;DHT22;9830;41.876;23.474;2022-10-29T14:55:30;15.20;49.10
19389;DHT22;9830;41.876;23.474;2022-10-29T14:58:04;14.90;49.20
19389;DHT22;9830;41.876;23.474;2022-10-29T15:00:33;14.80;49.60
19389;DHT22;9830;41.876;23.474;2022-10-29T15:03:02;14.50;49.90
19389;DHT22;9830;41.876;23.474;2022-10-29T15:05:32;14.30;50.50
19389;DHT22;9830;41.876;23.474;2022-10-29T15:10:50;13.90;51.60
19389;DHT22;9830;41.876;23.474;2022-10-29T15:16:08;13.40;52.30
19389;DHT22;9830;41.876;23.474;2022-10-29T15:18:49;13.20;52.80
19389;DHT22;9830;41.876;23.474;2022-10-29T15:21:44;12.90;53.40
19389;DHT22;9830;41.876;23.474;2022-10-29T15:24:15;12.70;54.30
19389;DHT22;9830;41.876;23.474;2022-10-29T15:26:56;12.50;54.80
19389;DHT22;9830;41.876;23.474;2022-10-29T15:29:25;12.40;56.10
19389;DHT22;9830;41.876;23.474;2022-10-29T15:31:56;12.20;56.80
19389;DHT22;9830;41.876;23.474;2022-10-29T15:34:35;12.10;57.80
19389;DHT22;9830;41.876;23.474;2022-10-29T15:37:59;11.90;58.80
19389;DHT22;9830;41.876;23.474;2022-10-29T15:40:01;11.80;59.70
19389;DHT22;9830;41.876;23.474;2022-10-29T15:42:29;11.60;60.70
19389;DHT22;9830;41.876;23.474;2022-10-29T15:45:13;11.50;61.30
19389;DHT22;9830;41.876;23.474;2022-10-29T15:50:29;11.20;63.60
19389;DHT22;9830;41.876;23.474;2022-10-29T15:53:00;11.00;66.90
19389;DHT22;9830;41.876;23.474;2022-10-29T15:55:31;10.80;68.30
19389;DHT22;9830;41.876;23.474;2022-10-29T16:00:26;10.30;71.40
19389;DHT22;9830;41.876;23.474;2022-10-29T16:02:53;10.30;71.30
19389;DHT22;9830;41.876;23.474;2022-10-29T16:05:19;10.20;71.90
19389;DHT22;9830;41.876;23.474;2022-10-29T16:07:46;10.10;72.80
19389;DHT22;9830;41.876;23.474;2022-10-29T16:10:18;10.00;73.60
19389;DHT22;9830;41.876;23.474;2022-10-29T16:12:44;9.80;75.20
19389;DHT22;9830;41.876;23.474;2022-10-29T16:15:15;9.70;76.10
19389;DHT22;9830;41.876;23.474;2022-10-29T16:17:41;9.60;77.20
19389;DHT22;9830;41.876;23.474;2022-10-29T16:20:11;9.50;78.20
19389;DHT22;9830;41.876;23.474;2022-10-29T16:22:37;9.50;79.00
19389;DHT22;9830;41.876;23.474;2022-10-29T16:25:03;9.40;80.40
19389;DHT22;9830;41.876;23.474;2022-10-29T16:27:29;9.30;81.00
19389;DHT22;9830;41.876;23.474;2022-10-29T16:29:55;9.30;81.70
19389;DHT22;9830;41.876;23.474;2022-10-29T16:32:22;9.20;83.40
19389;DHT22;9830;41.876;23.474;2022-10-29T16:34:49;9.20;83.50
19389;DHT22;9830;41.876;23.474;2022-10-29T16:37:18;9.00;84.00
19389;DHT22;9830;41.876;23.474;2022-10-29T16:39:43;8.90;84.10
19389;DHT22;9830;41.876;23.474;2022-10-29T16:42:33;8.90;83.80
19389;DHT22;9830;41.876;23.474;2022-10-29T16:44:59;8.90;83.40
19389;DHT22;9830;41.876;23.474;2022-10-29T16:47:25;8.90;83.00
19389;DHT22;9830;41.876;23.474;2022-10-29T16:49:51;8.80;83.00
19389;DHT22;9830;41.876;23.474;2022-10-29T16:52:16;8.70;84.00
19389;DHT22;9830;41.876;23.474;2022-10-29T16:54:42;8.60;85.10
19389;DHT22;9830;41.876;23.474;2022-10-29T16:57:08;8.50;85.50
19389;DHT22;9830;41.876;23.474;2022-10-29T16:59:33;8.20;87.10
19389;DHT22;9830;41.876;23.474;2022-10-29T17:01:59;8.10;87.40
19389;DHT22;9830;41.876;23.474;2022-10-29T17:04:27;8.00;87.80
19389;DHT22;9830;41.876;23.474;2022-10-29T17:06:53;7.90;88.50
19389;DHT22;9830;41.876;23.474;2022-10-29T17:09:19;7.90;88.80
19389;DHT22;9830;41.876;23.474;2022-10-29T17:11:44;7.90;89.10
19389;DHT22;9830;41.876;23.474;2022-10-29T17:14:10;7.80;89.30
19389;DHT22;9830;41.876;23.474;2022-10-29T17:16:36;7.80;89.70
19389;DHT22;9830;41.876;23.474;2022-10-29T17:19:05;7.70;90.10
19389;DHT22;9830;41.876;23.474;2022-10-29T17:21:31;7.70;90.40
19389;DHT22;9830;41.876;23.474;2022-10-29T17:23:58;7.70;90.40
19389;DHT22;9830;41.876;23.474;2022-10-29T17:26:24;7.70;90.40
19389;DHT22;9830;41.876;23.474;2022-10-29T17:28:49;7.60;90.50
19389;DHT22;9830;41.876;23.474;2022-10-29T17:31:15;7.60;90.40
19389;DHT22;9830;41.876;23.474;2022-10-29T17:33:41;7.50;91.80
19389;DHT22;9830;41.876;23.474;2022-10-29T17:36:11;7.20;91.50
19389;DHT22;9830;41.876;23.474;2022-10-29T17:38:36;7.10;92.50
19389;DHT22;9830;41.876;23.474;2022-10-29T17:41:02;7.00;92.60
19389;DHT22;9830;41.876;23.474;2022-10-29T17:43:28;7.00;92.50
19389;DHT22;9830;41.876;23.474;2022-10-29T17:45:53;6.90;92.30
19389;DHT22;9830;41.876;23.474;2022-10-29T17:48:19;6.90;92.50
19389;DHT22;9830;41.876;23.474;2022-10-29T17:50:56;6.80;92.60
19389;DHT22;9830;41.876;23.474;2022-10-29T17:53:23;6.80;92.80
19389;DHT22;9830;41.876;23.474;2022-10-29T17:55:49;6.80;92.80
19389;DHT22;9830;41.876;23.474;2022-10-29T17:58:16;6.80;92.70
19389;DHT22;9830;41.876;23.474;2022-10-29T18:00:42;6.70;92.80
19389;DHT22;9830;41.876;23.474;2022-10-29T18:03:08;6.50;93.10
19389;DHT22;9830;41.876;23.474;2022-10-29T18:05:34;6.50;93.30
19389;DHT22;9830;41.876;23.474;2022-10-29T18:07:59;6.30;94.10
19389;DHT22;9830;41.876;23.474;2022-10-29T18:10:25;6.20;94.90
19389;DHT22;9830;41.876;23.474;2022-10-29T18:12:51;6.10;95.10
19389;DHT22;9830;41.876;23.474;2022-10-29T18:15:17;6.10;95.00
19389;DHT22;9830;41.876;23.474;2022-10-29T18:17:42;6.10;95.20
19389;DHT22;9830;41.876;23.474;2022-10-29T18:20:08;6.00;95.10
19389;DHT22;9830;41.876;23.474;2022-10-29T18:22:34;5.90;95.30
19389;DHT22;9830;41.876;23.474;2022-10-29T18:25:00;5.90;95.50
19389;DHT22;9830;41.876;23.474;2022-10-29T18:27:26;5.90;95.30
19389;DHT22;9830;41.876;23.474;2022-10-29T18:29:52;5.90;95.30
19389;DHT22;9830;41.876;23.474;2022-10-29T18:32:18;5.80;95.40